sensor_id;sensor_type;location;lat;lon;timestamp;P1;durP1;ratioP1;P2;durP2;ratioP2
34204;SDS011;20471;49.680;20.074;2023-04-08T00:01:13;71.70;;;43.10;;
34204;SDS011;20471;49.680;20.074;2023-04-08T00:03:41;73.10;;;43.60;;
34204;SDS011;20471;49.680;20.074;2023-04-08T00:06:09;71.40;;;43.00;;
34204;SDS011;20471;49.680;20.074;2023-04-08T00:08:37;63.50;;;39.50;;
34204;SDS011;20471;49.680;20.074;2023-04-08T00:11:05;61.70;;;38.00;;
34204;SDS011;20471;49.680;20.074;2023-04-08T00:13:33;66.10;;;40.30;;
34204;SDS011;20471;49.680;20.074;2023-04-08T00:16:01;68.50;;;39.60;;
34204;SDS011;20471;49.680;20.074;2023-04-08T00:18:29;61.90;;;39.50;;
34204;SDS011;20471;49.680;20.074;2023-04-08T00:20:58;58.40;;;37.80;;
34204;SDS011;20471;49.680;20.074;2023-04-08T00:23:26;63.50;;;38.50;;
34204;SDS011;20471;49.680;20.074;2023-04-08T00:25:54;61.90;;;38.30;;
34204;SDS011;20471;49.680;20.074;2023-04-08T00:28:22;55.80;;;34.50;;
34204;SDS011;20471;49.680;20.074;2023-04-08T00:30:51;58.40;;;36.00;;
34204;SDS011;20471;49.680;20.074;2023-04-08T00:33:20;57.50;;;35.00;;
34204;SDS011;20471;49.680;20.074;2023-04-08T00:35:50;66.40;;;39.50;;
34204;SDS011;20471;49.680;20.074;2023-04-08T00:38:18;69.50;;;41.90;;
34204;SDS011;20471;49.680;20.074;2023-04-08T00:40:46;64.70;;;40.00;;
34204;SDS011;20471;49.680;20.074;2023-04-08T00:43:15;65.50;;;38.60;;
34204;SDS011;20471;49.680;20.074;2023-04-08T00:45:46;63.70;;;39.20;;
34204;SDS011;20471;49.680;20.074;2023-04-08T00:48:14;61.10;;;39.50;;
34204;SDS011;20471;49.680;20.074;2023-04-08T00:50:43;63.00;;;38.90;;
34204;SDS011;20471;49.680;20.074;2023-04-08T00:53:14;61.80;;;37.90;;
34204;SDS011;20471;49.680;20.074;2023-04-08T00:55:45;60.20;;;36.00;;
34204;SDS011;20471;49.680;20.074;2023-04-08T00:58:13;62.20;;;36.60;;
34204;SDS011;20471;49.680;20.074;2023-04-08T01:00:43;60.60;;;37.70;;
34204;SDS011;20471;49.680;20.074;2023-04-08T01:06:21;56.10;;;36.10;;
34204;SDS011;20471;49.680;20.074;2023-04-08T01:08:51;55.60;;;34.90;;
34204;SDS011;20471;49.680;20.074;2023-04-08T01:11:20;54.60;;;33.50;;
34204;SDS011;20471;49.680;20.074;2023-04-08T01:13:49;53.00;;;33.30;;
34204;SDS011;20471;49.680;20.074;2023-04-08T01:16:19;52.70;;;33.40;;
34204;SDS011;20471;49.680;20.074;2023-04-08T01:18:49;46.60;;;31.50;;
34204;SDS011;20471;49.680;20.074;2023-04-08T01:21:19;49.40;;;31.20;;
34204;SDS011;20471;49.680;20.074;2023-04-08T01:26:26;36.00;;;23.80;;
34204;SDS011;20471;49.680;20.074;2023-04-08T01:28:56;31.80;;;21.70;;
34204;SDS011;20471;49.680;20.074;2023-04-08T01:31:27;29.80;;;18.20;;
34204;SDS011;20471;49.680;20.074;2023-04-08T01:33:56;25.00;;;16.90;;
34204;SDS011;20471;49.680;20.074;2023-04-08T01:36:26;25.20;;;15.80;;
34204;SDS011;20471;49.680;20.074;2023-04-08T01:38:56;22.10;;;15.60;;
34204;SDS011;20471;49.680;20.074;2023-04-08T01:41:24;22.40;;;14.60;;
34204;SDS011;20471;49.680;20.074;2023-04-08T01:43:52;22.10;;;15.30;;
34204;SDS011;20471;49.680;20.074;2023-04-08T01:46:21;19.30;;;13.30;;
34204;SDS011;20471;49.680;20.074;2023-04-08T01:48:49;20.20;;;13.40;;
34204;SDS011;20471;49.680;20.074;2023-04-08T01:51:19;18.80;;;13.60;;
34204;SDS011;20471;49.680;20.074;2023-04-08T01:53:48;18.50;;;13.50;;
34204;SDS011;20471;49.680;20.074;2023-04-08T01:56:17;18.70;;;12.90;;
34204;SDS011;20471;49.680;20.074;2023-04-08T01:58:50;16.90;;;13.20;;
34204;SDS011;20471;49.680;20.074;2023-04-08T02:01:20;19.30;;;14.00;;
34204;SDS011;20471;49.680;20.074;2023-04-08T02:03:50;18.70;;;14.10;;
34204;SDS011;20471;49.680;20.074;2023-04-08T02:06:23;20.90;;;13.60;;
34204;SDS011;20471;49.680;20.074;2023-04-08T02:08:54;22.90;;;15.80;;
34204;SDS011;20471;49.680;20.074;2023-04-08T02:11:22;26.00;;;16.40;;
34204;SDS011;20471;49.680;20.074;2023-04-08T02:13:51;25.30;;;16.00;;
34204;SDS011;20471;49.680;20.074;2023-04-08T02:16:30;23.70;;;15.70;;
34204;SDS011;20471;49.680;20.074;2023-04-08T02:19:07;38.20;;;19.40;;
34204;SDS011;20471;49.680;20.074;2023-04-08T02:21:43;34.70;;;21.40;;
34204;SDS011;20471;49.680;20.074;2023-04-08T02:24:19;37.50;;;23.80;;
34204;SDS011;20471;49.680;20.074;2023-04-08T02:26:48;34.50;;;23.50;;
34204;SDS011;20471;49.680;20.074;2023-04-08T02:29:17;35.90;;;22.50;;
34204;SDS011;20471;49.680;20.074;2023-04-08T02:31:45;29.20;;;19.30;;
34204;SDS011;20471;49.680;20.074;2023-04-08T02:34:15;27.60;;;17.80;;
34204;SDS011;20471;49.680;20.074;2023-04-08T02:36:44;27.30;;;18.50;;
34204;SDS011;20471;49.680;20.074;2023-04-08T02:39:13;29.20;;;20.60;;
34204;SDS011;20471;49.680;20.074;2023-04-08T02:41:41;38.10;;;24.60;;
34204;SDS011;20471;49.680;20.074;2023-04-08T02:44:09;39.50;;;24.70;;
34204;SDS011;20471;49.680;20.074;2023-04-08T02:46:37;41.70;;;26.90;;
34204;SDS011;20471;49.680;20.074;2023-04-08T02:49:05;41.60;;;26.90;;
34204;SDS011;20471;49.680;20.074;2023-04-08T02:51:33;38.40;;;24.80;;
34204;SDS011;20471;49.680;20.074;2023-04-08T02:54:01;46.00;;;27.50;;
34204;SDS011;20471;49.680;20.074;2023-04-08T02:56:29;47.10;;;27.50;;
34204;SDS011;20471;49.680;20.074;2023-04-08T02:58:57;43.10;;;26.50;;
34204;SDS011;20471;49.680;20.074;2023-04-08T03:01:26;42.70;;;27.20;;
34204;SDS011;20471;49.680;20.074;2023-04-08T03:03:54;43.60;;;26.70;;
34204;SDS011;20471;49.680;20.074;2023-04-08T03:06:22;42.90;;;26.40;;
34204;SDS011;20471;49.680;20.074;2023-04-08T03:08:50;44.00;;;26.70;;
34204;SDS011;20471;49.680;20.074;2023-04-08T03:11:18;48.00;;;28.00;;
34204;SDS011;20471;49.680;20.074;2023-04-08T03:13:46;38.10;;;24.20;;
34204;SDS011;20471;49.680;20.074;2023-04-08T03:16:14;39.30;;;25.20;;
34204;SDS011;20471;49.680;20.074;2023-04-08T03:18:42;38.30;;;24.50;;
34204;SDS011;20471;49.680;20.074;2023-04-08T03:21:11;38.80;;;24.30;;
34204;SDS011;20471;49.680;20.074;2023-04-08T03:23:39;45.40;;;25.40;;
34204;SDS011;20471;49.680;20.074;2023-04-08T03:26:07;41.70;;;26.00;;
34204;SDS011;20471;49.680;20.074;2023-04-08T03:28:35;45.80;;;25.80;;
34204;SDS011;20471;49.680;20.074;2023-04-08T03:31:03;51.40;;;28.00;;
34204;SDS011;20471;49.680;20.074;2023-04-08T03:33:31;51.10;;;28.70;;
34204;SDS011;20471;49.680;20.074;2023-04-08T03:35:59;51.70;;;30.00;;
34204;SDS011;20471;49.680;20.074;2023-04-08T03:38:27;51.70;;;29.30;;
34204;SDS011;20471;49.680;20.074;2023-04-08T03:40:56;150.60;;;28.30;;
34204;SDS011;20471;49.680;20.074;2023-04-08T03:43:24;136.40;;;38.70;;
34204;SDS011;20471;49.680;20.074;2023-04-08T03:45:53;134.10;;;33.70;;
34204;SDS011;20471;49.680;20.074;2023-04-08T03:48:22;86.10;;;35.40;;
34204;SDS011;20471;49.680;20.074;2023-04-08T03:50:50;92.60;;;34.20;;
34204;SDS011;20471;49.680;20.074;2023-04-08T03:53:18;53.40;;;29.90;;
34204;SDS011;20471;49.680;20.074;2023-04-08T03:55:47;50.00;;;25.00;;
34204;SDS011;20471;49.680;20.074;2023-04-08T03:58:17;42.70;;;23.30;;
34204;SDS011;20471;49.680;20.074;2023-04-08T04:00:45;49.10;;;24.50;;
34204;SDS011;20471;49.680;20.074;2023-04-08T04:03:13;49.80;;;23.60;;
34204;SDS011;20471;49.680;20.074;2023-04-08T04:05:41;46.80;;;24.30;;
34204;SDS011;20471;49.680;20.074;2023-04-08T04:08:09;43.70;;;22.50;;
34204;SDS011;20471;49.680;20.074;2023-04-08T04:10:37;39.90;;;22.50;;
34204;SDS011;20471;49.680;20.074;2023-04-08T04:13:05;39.40;;;23.30;;
34204;SDS011;20471;49.680;20.074;2023-04-08T04:15:36;49.50;;;23.20;;
34204;SDS011;20471;49.680;20.074;2023-04-08T04:18:06;40.70;;;22.50;;
34204;SDS011;20471;49.680;20.074;2023-04-08T04:20:34;38.70;;;23.30;;
34204;SDS011;20471;49.680;20.074;2023-04-08T04:23:03;46.40;;;24.00;;
34204;SDS011;20471;49.680;20.074;2023-04-08T04:25:31;49.60;;;22.90;;
34204;SDS011;20471;49.680;20.074;2023-04-08T04:27:59;42.20;;;22.30;;
34204;SDS011;20471;49.680;20.074;2023-04-08T04:30:28;48.50;;;23.70;;
34204;SDS011;20471;49.680;20.074;2023-04-08T04:32:56;54.20;;;23.60;;
34204;SDS011;20471;49.680;20.074;2023-04-08T04:35:24;63.70;;;21.80;;
34204;SDS011;20471;49.680;20.074;2023-04-08T04:37:52;49.40;;;21.20;;
34204;SDS011;20471;49.680;20.074;2023-04-08T04:40:20;45.20;;;21.80;;
34204;SDS011;20471;49.680;20.074;2023-04-08T04:42:48;46.20;;;21.90;;
34204;SDS011;20471;49.680;20.074;2023-04-08T04:45:16;45.10;;;22.90;;
34204;SDS011;20471;49.680;20.074;2023-04-08T04:47:45;72.70;;;25.50;;
34204;SDS011;20471;49.680;20.074;2023-04-08T04:50:13;46.10;;;24.20;;
34204;SDS011;20471;49.680;20.074;2023-04-08T04:52:41;50.90;;;24.30;;
34204;SDS011;20471;49.680;20.074;2023-04-08T04:55:09;60.10;;;26.60;;
34204;SDS011;20471;49.680;20.074;2023-04-08T04:57:37;65.30;;;26.80;;
34204;SDS011;20471;49.680;20.074;2023-04-08T05:00:05;56.80;;;26.40;;
34204;SDS011;20471;49.680;20.074;2023-04-08T05:02:35;58.70;;;24.10;;
34204;SDS011;20471;49.680;20.074;2023-04-08T05:05:03;57.60;;;24.70;;
34204;SDS011;20471;49.680;20.074;2023-04-08T05:07:35;45.70;;;24.80;;
34204;SDS011;20471;49.680;20.074;2023-04-08T05:10:03;49.30;;;25.10;;
34204;SDS011;20471;49.680;20.074;2023-04-08T05:12:32;48.80;;;24.70;;
34204;SDS011;20471;49.680;20.074;2023-04-08T05:15:00;47.30;;;25.10;;
34204;SDS011;20471;49.680;20.074;2023-04-08T05:17:29;56.60;;;24.90;;
34204;SDS011;20471;49.680;20.074;2023-04-08T05:19:57;48.30;;;23.90;;
34204;SDS011;20471;49.680;20.074;2023-04-08T05:22:25;48.50;;;27.60;;
34204;SDS011;20471;49.680;20.074;2023-04-08T05:24:53;44.40;;;27.10;;
34204;SDS011;20471;49.680;20.074;2023-04-08T05:27:21;43.60;;;26.40;;
34204;SDS011;20471;49.680;20.074;2023-04-08T05:29:49;54.20;;;29.90;;
34204;SDS011;20471;49.680;20.074;2023-04-08T05:32:17;56.80;;;31.20;;
34204;SDS011;20471;49.680;20.074;2023-04-08T05:34:46;51.90;;;31.90;;
34204;SDS011;20471;49.680;20.074;2023-04-08T05:37:14;55.00;;;33.50;;
34204;SDS011;20471;49.680;20.074;2023-04-08T05:39:42;57.00;;;34.80;;
34204;SDS011;20471;49.680;20.074;2023-04-08T05:42:10;56.60;;;33.90;;
34204;SDS011;20471;49.680;20.074;2023-04-08T05:44:39;56.50;;;33.30;;
34204;SDS011;20471;49.680;20.074;2023-04-08T05:47:09;54.20;;;33.10;;
34204;SDS011;20471;49.680;20.074;2023-04-08T05:49:38;56.00;;;32.80;;
34204;SDS011;20471;49.680;20.074;2023-04-08T05:52:06;53.40;;;31.10;;
34204;SDS011;20471;49.680;20.074;2023-04-08T05:54:34;45.40;;;28.90;;
34204;SDS011;20471;49.680;20.074;2023-04-08T05:57:02;46.50;;;28.10;;
34204;SDS011;20471;49.680;20.074;2023-04-08T05:59:30;44.00;;;28.60;;
34204;SDS011;20471;49.680;20.074;2023-04-08T06:01:58;56.70;;;35.20;;
34204;SDS011;20471;49.680;20.074;2023-04-08T06:04:27;50.60;;;31.70;;
34204;SDS011;20471;49.680;20.074;2023-04-08T06:06:55;45.70;;;29.30;;
34204;SDS011;20471;49.680;20.074;2023-04-08T06:09:25;44.30;;;28.40;;
34204;SDS011;20471;49.680;20.074;2023-04-08T06:11:53;38.10;;;26.00;;
34204;SDS011;20471;49.680;20.074;2023-04-08T06:14:22;37.60;;;25.40;;
34204;SDS011;20471;49.680;20.074;2023-04-08T06:16:50;53.70;;;34.00;;
34204;SDS011;20471;49.680;20.074;2023-04-08T06:19:20;60.00;;;36.70;;
34204;SDS011;20471;49.680;20.074;2023-04-08T06:21:48;60.40;;;37.60;;
34204;SDS011;20471;49.680;20.074;2023-04-08T06:24:16;54.90;;;33.10;;
34204;SDS011;20471;49.680;20.074;2023-04-08T06:26:45;48.50;;;32.00;;
34204;SDS011;20471;49.680;20.074;2023-04-08T06:29:13;53.30;;;33.00;;
34204;SDS011;20471;49.680;20.074;2023-04-08T06:31:41;47.90;;;31.80;;
34204;SDS011;20471;49.680;20.074;2023-04-08T06:34:09;49.50;;;32.40;;
34204;SDS011;20471;49.680;20.074;2023-04-08T06:36:38;48.40;;;31.50;;
34204;SDS011;20471;49.680;20.074;2023-04-08T06:39:06;44.60;;;30.30;;
34204;SDS011;20471;49.680;20.074;2023-04-08T06:41:34;40.80;;;27.80;;
34204;SDS011;20471;49.680;20.074;2023-04-08T06:44:02;40.50;;;28.00;;
34204;SDS011;20471;49.680;20.074;2023-04-08T06:46:30;36.50;;;24.40;;
34204;SDS011;20471;49.680;20.074;2023-04-08T06:48:58;32.60;;;22.10;;
34204;SDS011;20471;49.680;20.074;2023-04-08T06:51:26;32.00;;;20.80;;
34204;SDS011;20471;49.680;20.074;2023-04-08T06:53:54;25.30;;;17.40;;
34204;SDS011;20471;49.680;20.074;2023-04-08T06:56:22;24.00;;;17.30;;
34204;SDS011;20471;49.680;20.074;2023-04-08T06:58:51;25.10;;;16.50;;
34204;SDS011;20471;49.680;20.074;2023-04-08T07:01:19;22.80;;;16.20;;
34204;SDS011;20471;49.680;20.074;2023-04-08T07:03:48;23.80;;;16.00;;
34204;SDS011;20471;49.680;20.074;2023-04-08T07:06:16;21.40;;;15.40;;
34204;SDS011;20471;49.680;20.074;2023-04-08T07:08:44;18.90;;;14.20;;
34204;SDS011;20471;49.680;20.074;2023-04-08T07:11:12;20.10;;;14.50;;
34204;SDS011;20471;49.680;20.074;2023-04-08T07:13:41;20.40;;;14.20;;
34204;SDS011;20471;49.680;20.074;2023-04-08T07:16:09;16.80;;;12.80;;
34204;SDS011;20471;49.680;20.074;2023-04-08T07:18:38;16.20;;;11.90;;
34204;SDS011;20471;49.680;20.074;2023-04-08T07:21:07;16.30;;;11.50;;
34204;SDS011;20471;49.680;20.074;2023-04-08T07:23:35;15.60;;;11.90;;
34204;SDS011;20471;49.680;20.074;2023-04-08T07:26:03;16.30;;;12.10;;
34204;SDS011;20471;49.680;20.074;2023-04-08T07:28:31;14.20;;;10.80;;
34204;SDS011;20471;49.680;20.074;2023-04-08T07:31:12;15.10;;;10.10;;
34204;SDS011;20471;49.680;20.074;2023-04-08T07:33:44;14.40;;;10.20;;
34204;SDS011;20471;49.680;20.074;2023-04-08T07:36:13;13.00;;;10.20;;
34204;SDS011;20471;49.680;20.074;2023-04-08T07:38:43;12.00;;;9.50;;
34204;SDS011;20471;49.680;20.074;2023-04-08T07:41:12;14.90;;;10.90;;
34204;SDS011;20471;49.680;20.074;2023-04-08T07:43:41;12.80;;;10.20;;
34204;SDS011;20471;49.680;20.074;2023-04-08T07:46:09;13.70;;;10.60;;
34204;SDS011;20471;49.680;20.074;2023-04-08T07:48:37;13.00;;;9.20;;
34204;SDS011;20471;49.680;20.074;2023-04-08T07:51:06;9.90;;;7.80;;
34204;SDS011;20471;49.680;20.074;2023-04-08T07:53:35;9.90;;;7.90;;
34204;SDS011;20471;49.680;20.074;2023-04-08T07:56:09;11.60;;;8.50;;
34204;SDS011;20471;49.680;20.074;2023-04-08T07:58:39;11.10;;;8.30;;
34204;SDS011;20471;49.680;20.074;2023-04-08T08:01:20;9.50;;;7.70;;
34204;SDS011;20471;49.680;20.074;2023-04-08T08:03:50;8.90;;;7.60;;
34204;SDS011;20471;49.680;20.074;2023-04-08T08:06:18;9.90;;;8.00;;
34204;SDS011;20471;49.680;20.074;2023-04-08T08:08:47;8.80;;;7.30;;
34204;SDS011;20471;49.680;20.074;2023-04-08T08:11:15;8.10;;;6.60;;
34204;SDS011;20471;49.680;20.074;2023-04-08T08:13:43;8.10;;;6.80;;
34204;SDS011;20471;49.680;20.074;2023-04-08T08:16:11;9.20;;;6.80;;
34204;SDS011;20471;49.680;20.074;2023-04-08T08:18:39;8.40;;;6.90;;
34204;SDS011;20471;49.680;20.074;2023-04-08T08:21:08;8.60;;;7.50;;
34204;SDS011;20471;49.680;20.074;2023-04-08T08:23:36;7.90;;;7.00;;
34204;SDS011;20471;49.680;20.074;2023-04-08T08:26:06;10.40;;;8.60;;
34204;SDS011;20471;49.680;20.074;2023-04-08T08:28:36;8.80;;;7.80;;
34204;SDS011;20471;49.680;20.074;2023-04-08T08:31:05;9.20;;;8.10;;
34204;SDS011;20471;49.680;20.074;2023-04-08T08:33:34;9.30;;;7.60;;
34204;SDS011;20471;49.680;20.074;2023-04-08T08:36:02;9.50;;;7.80;;
34204;SDS011;20471;49.680;20.074;2023-04-08T08:38:32;11.00;;;8.20;;
34204;SDS011;20471;49.680;20.074;2023-04-08T08:41:00;9.10;;;7.70;;
34204;SDS011;20471;49.680;20.074;2023-04-08T08:43:29;9.50;;;8.00;;
34204;SDS011;20471;49.680;20.074;2023-04-08T08:45:58;9.60;;;7.80;;
34204;SDS011;20471;49.680;20.074;2023-04-08T08:48:27;9.40;;;7.80;;
34204;SDS011;20471;49.680;20.074;2023-04-08T08:50:55;10.30;;;8.50;;
34204;SDS011;20471;49.680;20.074;2023-04-08T08:53:30;10.70;;;8.00;;
34204;SDS011;20471;49.680;20.074;2023-04-08T08:55:58;11.30;;;8.40;;
34204;SDS011;20471;49.680;20.074;2023-04-08T08:58:27;9.40;;;7.60;;
34204;SDS011;20471;49.680;20.074;2023-04-08T09:00:55;10.40;;;8.10;;
34204;SDS011;20471;49.680;20.074;2023-04-08T09:03:25;9.90;;;6.70;;
34204;SDS011;20471;49.680;20.074;2023-04-08T09:11:09;7.70;;;6.80;;
34204;SDS011;20471;49.680;20.074;2023-04-08T09:13:39;9.40;;;6.30;;
34204;SDS011;20471;49.680;20.074;2023-04-08T09:16:11;8.80;;;6.90;;
34204;SDS011;20471;49.680;20.074;2023-04-08T09:18:42;8.20;;;6.30;;
34204;SDS011;20471;49.680;20.074;2023-04-08T09:21:12;7.30;;;6.30;;
34204;SDS011;20471;49.680;20.074;2023-04-08T09:26:14;8.90;;;6.30;;
34204;SDS011;20471;49.680;20.074;2023-04-08T09:28:55;10.60;;;6.30;;
34204;SDS011;20471;49.680;20.074;2023-04-08T09:31:38;7.80;;;5.90;;
34204;SDS011;20471;49.680;20.074;2023-04-08T09:36:40;7.70;;;6.60;;
34204;SDS011;20471;49.680;20.074;2023-04-08T09:39:08;7.60;;;6.00;;
34204;SDS011;20471;49.680;20.074;2023-04-08T09:41:37;7.30;;;6.40;;
34204;SDS011;20471;49.680;20.074;2023-04-08T09:44:06;8.90;;;6.90;;
34204;SDS011;20471;49.680;20.074;2023-04-08T09:55:29;8.70;;;7.40;;
34204;SDS011;20471;49.680;20.074;2023-04-08T09:58:07;9.20;;;7.70;;
34204;SDS011;20471;49.680;20.074;2023-04-08T10:00:39;11.80;;;7.80;;
34204;SDS011;20471;49.680;20.074;2023-04-08T10:05:58;11.10;;;8.00;;
34204;SDS011;20471;49.680;20.074;2023-04-08T10:08:29;9.00;;;7.30;;
34204;SDS011;20471;49.680;20.074;2023-04-08T10:10:58;7.80;;;6.50;;
34204;SDS011;20471;49.680;20.074;2023-04-08T10:13:26;9.00;;;7.50;;
34204;SDS011;20471;49.680;20.074;2023-04-08T10:18:52;7.60;;;6.80;;
34204;SDS011;20471;49.680;20.074;2023-04-08T10:21:31;7.90;;;7.00;;
34204;SDS011;20471;49.680;20.074;2023-04-08T10:24:09;8.80;;;7.50;;
34204;SDS011;20471;49.680;20.074;2023-04-08T10:26:38;10.80;;;8.30;;
34204;SDS011;20471;49.680;20.074;2023-04-08T10:31:47;9.90;;;8.80;;
34204;SDS011;20471;49.680;20.074;2023-04-08T10:34:20;13.60;;;10.40;;
34204;SDS011;20471;49.680;20.074;2023-04-08T10:36:50;12.80;;;10.60;;
34204;SDS011;20471;49.680;20.074;2023-04-08T10:39:18;11.70;;;10.20;;
34204;SDS011;20471;49.680;20.074;2023-04-08T10:41:47;15.00;;;11.80;;
34204;SDS011;20471;49.680;20.074;2023-04-08T10:44:20;14.70;;;11.10;;
34204;SDS011;20471;49.680;20.074;2023-04-08T10:46:51;13.70;;;11.20;;
34204;SDS011;20471;49.680;20.074;2023-04-08T10:49:20;15.20;;;12.00;;
34204;SDS011;20471;49.680;20.074;2023-04-08T10:51:49;14.00;;;11.60;;
34204;SDS011;20471;49.680;20.074;2023-04-08T10:54:17;15.20;;;12.60;;
34204;SDS011;20471;49.680;20.074;2023-04-08T10:56:49;14.10;;;12.10;;
34204;SDS011;20471;49.680;20.074;2023-04-08T10:59:29;15.10;;;12.00;;
34204;SDS011;20471;49.680;20.074;2023-04-08T11:01:58;15.90;;;13.20;;
34204;SDS011;20471;49.680;20.074;2023-04-08T11:04:27;18.90;;;14.10;;
34204;SDS011;20471;49.680;20.074;2023-04-08T11:06:55;16.60;;;13.20;;
34204;SDS011;20471;49.680;20.074;2023-04-08T11:09:24;16.30;;;13.60;;
34204;SDS011;20471;49.680;20.074;2023-04-08T11:11:52;18.70;;;13.60;;
34204;SDS011;20471;49.680;20.074;2023-04-08T11:14:22;18.40;;;13.70;;
34204;SDS011;20471;49.680;20.074;2023-04-08T11:16:50;17.70;;;13.30;;
34204;SDS011;20471;49.680;20.074;2023-04-08T11:19:18;18.60;;;14.70;;
34204;SDS011;20471;49.680;20.074;2023-04-08T11:21:49;16.10;;;12.70;;
34204;SDS011;20471;49.680;20.074;2023-04-08T11:24:18;16.50;;;13.70;;
34204;SDS011;20471;49.680;20.074;2023-04-08T11:26:47;15.50;;;12.50;;
34204;SDS011;20471;49.680;20.074;2023-04-08T11:29:16;16.80;;;13.80;;
34204;SDS011;20471;49.680;20.074;2023-04-08T11:31:44;16.30;;;13.80;;
34204;SDS011;20471;49.680;20.074;2023-04-08T11:34:20;17.20;;;14.00;;
34204;SDS011;20471;49.680;20.074;2023-04-08T11:36:50;16.30;;;13.60;;
34204;SDS011;20471;49.680;20.074;2023-04-08T11:39:21;17.50;;;13.80;;
34204;SDS011;20471;49.680;20.074;2023-04-08T11:41:49;18.60;;;14.00;;
34204;SDS011;20471;49.680;20.074;2023-04-08T11:44:18;18.10;;;14.40;;
34204;SDS011;20471;49.680;20.074;2023-04-08T11:46:53;18.20;;;14.00;;
34204;SDS011;20471;49.680;20.074;2023-04-08T11:49:22;18.50;;;13.80;;
34204;SDS011;20471;49.680;20.074;2023-04-08T11:51:55;16.40;;;13.90;;
34204;SDS011;20471;49.680;20.074;2023-04-08T11:54:25;18.00;;;14.90;;
34204;SDS011;20471;49.680;20.074;2023-04-08T11:56:55;20.90;;;16.50;;
34204;SDS011;20471;49.680;20.074;2023-04-08T11:59:23;18.40;;;14.30;;
34204;SDS011;20471;49.680;20.074;2023-04-08T12:01:52;17.40;;;14.90;;
34204;SDS011;20471;49.680;20.074;2023-04-08T12:04:20;20.80;;;15.30;;
34204;SDS011;20471;49.680;20.074;2023-04-08T12:06:48;18.50;;;15.00;;
34204;SDS011;20471;49.680;20.074;2023-04-08T12:09:17;18.00;;;14.70;;
34204;SDS011;20471;49.680;20.074;2023-04-08T12:11:45;20.40;;;16.20;;
34204;SDS011;20471;49.680;20.074;2023-04-08T12:14:14;22.70;;;17.60;;
34204;SDS011;20471;49.680;20.074;2023-04-08T12:16:42;26.40;;;20.50;;
34204;SDS011;20471;49.680;20.074;2023-04-08T12:19:10;23.40;;;17.20;;
34204;SDS011;20471;49.680;20.074;2023-04-08T12:21:38;24.30;;;19.20;;
34204;SDS011;20471;49.680;20.074;2023-04-08T12:24:06;24.10;;;18.60;;
34204;SDS011;20471;49.680;20.074;2023-04-08T12:26:34;25.90;;;19.40;;
34204;SDS011;20471;49.680;20.074;2023-04-08T12:29:02;25.80;;;20.40;;
34204;SDS011;20471;49.680;20.074;2023-04-08T12:31:30;26.90;;;20.90;;
34204;SDS011;20471;49.680;20.074;2023-04-08T12:33:58;31.00;;;21.90;;
34204;SDS011;20471;49.680;20.074;2023-04-08T12:36:27;31.40;;;23.30;;
34204;SDS011;20471;49.680;20.074;2023-04-08T12:38:55;27.30;;;20.30;;
34204;SDS011;20471;49.680;20.074;2023-04-08T12:41:23;30.60;;;22.20;;
34204;SDS011;20471;49.680;20.074;2023-04-08T12:43:51;30.70;;;22.30;;
34204;SDS011;20471;49.680;20.074;2023-04-08T12:46:20;27.90;;;21.90;;
34204;SDS011;20471;49.680;20.074;2023-04-08T12:48:48;30.90;;;22.80;;
34204;SDS011;20471;49.680;20.074;2023-04-08T12:51:16;31.30;;;22.50;;
34204;SDS011;20471;49.680;20.074;2023-04-08T12:53:44;32.40;;;23.70;;
34204;SDS011;20471;49.680;20.074;2023-04-08T12:56:12;31.90;;;23.60;;
34204;SDS011;20471;49.680;20.074;2023-04-08T12:58:41;34.80;;;24.40;;
34204;SDS011;20471;49.680;20.074;2023-04-08T13:01:09;36.20;;;25.90;;
34204;SDS011;20471;49.680;20.074;2023-04-08T13:03:37;37.60;;;27.30;;
34204;SDS011;20471;49.680;20.074;2023-04-08T13:06:07;39.10;;;27.90;;
34204;SDS011;20471;49.680;20.074;2023-04-08T13:08:35;39.80;;;28.40;;
34204;SDS011;20471;49.680;20.074;2023-04-08T13:11:04;38.30;;;28.30;;
34204;SDS011;20471;49.680;20.074;2023-04-08T13:13:32;41.20;;;29.60;;
34204;SDS011;20471;49.680;20.074;2023-04-08T13:16:00;43.40;;;30.10;;
34204;SDS011;20471;49.680;20.074;2023-04-08T13:18:28;42.30;;;29.90;;
34204;SDS011;20471;49.680;20.074;2023-04-08T13:20:56;48.30;;;34.70;;
34204;SDS011;20471;49.680;20.074;2023-04-08T13:23:24;45.30;;;30.90;;
34204;SDS011;20471;49.680;20.074;2023-04-08T13:25:52;41.40;;;29.40;;
34204;SDS011;20471;49.680;20.074;2023-04-08T13:28:21;45.50;;;30.50;;
34204;SDS011;20471;49.680;20.074;2023-04-08T13:30:49;42.70;;;29.60;;
34204;SDS011;20471;49.680;20.074;2023-04-08T13:33:17;44.80;;;31.00;;
34204;SDS011;20471;49.680;20.074;2023-04-08T13:35:45;43.50;;;31.20;;
34204;SDS011;20471;49.680;20.074;2023-04-08T13:38:13;47.30;;;32.00;;
34204;SDS011;20471;49.680;20.074;2023-04-08T13:40:41;45.50;;;31.80;;
34204;SDS011;20471;49.680;20.074;2023-04-08T13:43:10;42.90;;;29.00;;
34204;SDS011;20471;49.680;20.074;2023-04-08T13:45:40;45.00;;;30.70;;
34204;SDS011;20471;49.680;20.074;2023-04-08T13:48:08;44.30;;;30.60;;
34204;SDS011;20471;49.680;20.074;2023-04-08T13:50:36;43.10;;;29.00;;
34204;SDS011;20471;49.680;20.074;2023-04-08T13:53:05;41.90;;;28.40;;
34204;SDS011;20471;49.680;20.074;2023-04-08T13:55:33;42.20;;;29.00;;
34204;SDS011;20471;49.680;20.074;2023-04-08T13:58:01;48.40;;;31.60;;
34204;SDS011;20471;49.680;20.074;2023-04-08T14:00:30;42.20;;;29.60;;
34204;SDS011;20471;49.680;20.074;2023-04-08T14:02:58;48.20;;;31.50;;
34204;SDS011;20471;49.680;20.074;2023-04-08T14:05:26;45.30;;;30.70;;
34204;SDS011;20471;49.680;20.074;2023-04-08T14:07:54;46.10;;;31.80;;
34204;SDS011;20471;49.680;20.074;2023-04-08T14:10:22;42.00;;;30.00;;
34204;SDS011;20471;49.680;20.074;2023-04-08T14:12:50;41.90;;;29.00;;
34204;SDS011;20471;49.680;20.074;2023-04-08T14:15:19;54.80;;;34.00;;
34204;SDS011;20471;49.680;20.074;2023-04-08T14:17:47;45.40;;;29.70;;
34204;SDS011;20471;49.680;20.074;2023-04-08T14:20:16;46.10;;;30.20;;
34204;SDS011;20471;49.680;20.074;2023-04-08T14:22:44;46.70;;;29.30;;
34204;SDS011;20471;49.680;20.074;2023-04-08T14:25:12;48.90;;;31.30;;
34204;SDS011;20471;49.680;20.074;2023-04-08T14:27:40;44.60;;;29.60;;
34204;SDS011;20471;49.680;20.074;2023-04-08T14:30:09;53.60;;;31.60;;
34204;SDS011;20471;49.680;20.074;2023-04-08T14:32:37;43.10;;;29.60;;
34204;SDS011;20471;49.680;20.074;2023-04-08T14:35:06;46.20;;;31.40;;
34204;SDS011;20471;49.680;20.074;2023-04-08T14:37:34;48.10;;;30.20;;
34204;SDS011;20471;49.680;20.074;2023-04-08T14:40:03;50.60;;;31.40;;
34204;SDS011;20471;49.680;20.074;2023-04-08T14:42:32;54.00;;;32.00;;
34204;SDS011;20471;49.680;20.074;2023-04-08T14:45:00;44.90;;;30.10;;
34204;SDS011;20471;49.680;20.074;2023-04-08T14:47:28;48.00;;;29.80;;
34204;SDS011;20471;49.680;20.074;2023-04-08T14:49:56;47.60;;;30.70;;
34204;SDS011;20471;49.680;20.074;2023-04-08T14:52:25;46.80;;;30.00;;
34204;SDS011;20471;49.680;20.074;2023-04-08T14:54:53;46.10;;;30.20;;
34204;SDS011;20471;49.680;20.074;2023-04-08T14:57:21;46.90;;;30.70;;